Time;durP1;ratioP1;P1;durP2;ratioP2;P2;SDS_P1;SDS_P2;PMS_P1;PMS_P2;Temp;Humidity;BMP_temperature;BMP_pressure;BME280_temperature;BME280_humidity;BME280_pressure;Samples;Min_cycle;Max_cycle;Signal;HPM_P1;HPM_P2
2023/05/18 00:02:02;;;;;;;5.90;1.92;;;8.60;99.90;;;;;;5018286;28;20056;-67
2023/05/18 00:04:29;;;;;;;2.35;1.30;;;8.60;99.90;;;;;;5007114;28;20327;-66
2023/05/18 00:06:57;;;;;;;8.45;1.45;;;8.60;99.90;;;;;;5016932;28;20429;-67
2023/05/18 00:09:25;;;;;;;6.22;1.52;;;8.60;99.90;;;;;;5022496;28;20208;-67
2023/05/18 00:11:55;;;;;;;7.17;1.43;;;8.60;99.90;;;;;;5018520;28;20448;-67
2023/05/18 00:14:21;;;;;;;9.65;2.33;;;8.60;99.90;;;;;;5021587;28;20106;-67
2023/05/18 00:16:47;;;;;;;3.00;1.33;;;8.60;99.90;;;;;;5015618;28;20044;-66
2023/05/18 00:19:13;;;;;;;3.47;1.45;;;8.60;99.90;;;;;;5014995;28;20510;-67
2023/05/18 00:21:42;;;;;;;;;;;8.60;99.90;;;;;;5020789;28;20275;-67
2023/05/18 00:24:11;;;;;;;6.18;1.92;;;8.50;99.90;;;;;;5018456;28;19921;-67
2023/05/18 00:26:42;;;;;;;5.03;1.40;;;8.50;99.90;;;;;;5012603;28;20038;-66
2023/05/18 00:29:08;;;;;;;6.07;1.27;;;8.40;99.90;;;;;;5022909;28;20040;-67
2023/05/18 00:31:35;;;;;;;8.65;1.80;;;8.40;99.90;;;;;;5018645;28;20390;-66
2023/05/18 00:34:08;;;;;;;3.47;1.20;;;8.40;99.90;;;;;;5024414;28;20041;-67
2023/05/18 00:36:34;;;;;;;6.88;1.20;;;8.30;99.90;;;;;;5019004;28;20059;-66
2023/05/18 00:39:00;;;;;;;;;;;8.30;99.90;;;;;;5043060;22;20113;-90
2023/05/18 00:41:27;;;;;;;5.35;1.83;;;8.30;99.90;;;;;;5030359;28;19917;-86
2023/05/18 00:43:53;;;;;;;5.00;1.52;;;8.40;99.90;;;;;;5023954;28;20637;-86
2023/05/18 00:46:23;;;;;;;8.82;1.73;;;8.30;99.90;;;;;;5030854;22;20044;-86
2023/05/18 00:48:50;;;;;;;4.70;1.33;;;8.30;99.90;;;;;;5028769;28;20584;-87
2023/05/18 00:51:18;;;;;;;9.40;2.33;;;8.30;99.90;;;;;;5032661;28;20056;-87
2023/05/18 00:53:45;;;;;;;6.80;1.35;;;8.30;99.90;;;;;;5021108;28;20057;-86
2023/05/18 00:56:22;;;;;;;8.13;2.40;;;8.30;99.90;;;;;;5025393;28;20040;-86
2023/05/18 00:58:50;;;;;;;3.13;1.70;;;8.30;99.90;;;;;;5023436;28;20037;-86
2023/05/18 01:01:30;;;;;;;4.80;1.60;;;8.20;99.90;;;;;;5029167;28;20394;-87
2023/05/18 01:04:00;;;;;;;5.80;1.52;;;8.20;99.90;;;;;;5014986;28;20041;-87
2023/05/18 01:06:27;;;;;;;4.03;1.60;;;8.30;99.90;;;;;;5015552;28;20038;-85
2023/05/18 01:08:53;;;;;;;7.75;2.38;;;8.20;99.90;;;;;;5018718;28;20045;-88
2023/05/18 01:11:52;;;;;;;4.07;2.00;;;8.10;99.90;;;;;;5019207;28;20045;-87
2023/05/18 01:14:44;;;;;;;5.45;1.45;;;8.20;99.90;;;;;;5015369;28;20068;-87
2023/05/18 01:17:40;;;;;;;5.18;1.73;;;8.10;99.90;;;;;;5025259;28;20057;-87
2023/05/18 01:20:37;;;;;;;4.82;1.42;;;8.10;99.90;;;;;;5044761;28;20037;-86
2023/05/18 01:23:36;;;;;;;4.60;1.55;;;8.10;99.90;;;;;;5021628;28;20052;-86
2023/05/18 01:26:45;;;;;;;5.45;1.60;;;8.20;99.90;;;;;;5018403;28;20045;-86
2023/05/18 01:29:12;;;;;;;4.53;1.73;;;8.20;99.90;;;;;;5033723;28;20058;-86
2023/05/18 01:31:39;;;;;;;6.50;1.95;;;8.20;99.90;;;;;;5025426;28;20052;-87
2023/05/18 01:34:05;;;;;;;4.70;1.95;;;8.20;99.90;;;;;;5033184;28;20084;-87
2023/05/18 01:36:34;;;;;;;5.20;1.90;;;8.20;99.90;;;;;;5032518;28;20032;-88
2023/05/18 01:39:00;;;;;;;6.88;1.63;;;8.20;99.90;;;;;;5029993;28;20125;-88
2023/05/18 01:41:34;;;;;;;8.43;2.13;;;8.20;99.90;;;;;;5035599;28;20667;-89
2023/05/18 01:44:19;;;;;;;4.10;1.65;;;8.20;99.90;;;;;;5024636;28;20072;-87
2023/05/18 01:47:09;;;;;;;8.80;1.80;;;8.20;99.90;;;;;;5017631;28;20115;-88
2023/05/18 01:49:42;;;;;;;6.13;2.08;;;8.20;99.90;;;;;;5019654;28;20044;-87
2023/05/18 01:52:31;;;;;;;5.28;1.83;;;8.10;99.90;;;;;;5019581;28;20086;-87
2023/05/18 01:55:02;;;;;;;7.10;2.40;;;8.20;99.90;;;;;;5017217;28;21288;-87
2023/05/18 01:57:30;;;;;;;6.13;2.30;;;8.30;99.90;;;;;;5031964;28;20041;-87
2023/05/18 02:00:09;;;;;;;5.43;2.10;;;8.20;99.90;;;;;;5009873;28;20046;-87
2023/05/18 02:02:37;;;;;;;6.00;1.85;;;8.30;99.90;;;;;;5036179;28;20044;-87
2023/05/18 02:05:04;;;;;;;9.10;2.15;;;8.30;99.90;;;;;;5017249;28;20087;-88
2023/05/18 02:07:30;;;;;;;6.00;2.28;;;8.30;99.90;;;;;;5015350;28;20129;-88
2023/05/18 02:09:58;;;;;;;5.65;1.92;;;8.30;99.90;;;;;;5014048;28;20489;-88
2023/05/18 02:12:27;;;;;;;5.13;1.60;;;8.40;99.90;;;;;;5045553;28;20076;-89
2023/05/18 02:14:54;;;;;;;7.75;1.90;;;8.40;99.90;;;;;;5028461;28;20129;-88
2023/05/18 02:17:24;;;;;;;6.40;1.45;;;8.30;99.90;;;;;;5025618;28;20099;-88
2023/05/18 02:19:51;;;;;;;5.60;1.23;;;8.40;99.90;;;;;;5034349;28;20075;-87
2023/05/18 02:22:16;;;;;;;5.95;1.63;;;8.40;99.90;;;;;;5015503;28;20048;-88
2023/05/18 02:24:47;;;;;;;8.10;1.92;;;8.30;99.90;;;;;;5028940;28;20041;-87
2023/05/18 02:27:15;;;;;;;4.15;1.90;;;8.40;99.90;;;;;;5031437;28;20535;-89
2023/05/18 02:29:41;;;;;;;4.82;1.58;;;8.40;99.90;;;;;;5017517;28;20057;-89
2023/05/18 02:32:10;;;;;;;11.30;1.80;;;8.40;99.90;;;;;;5018399;28;20045;-88
2023/05/18 02:34:37;;;;;;;8.82;1.55;;;8.50;99.90;;;;;;5044399;28;20037;-88
2023/05/18 02:37:05;;;;;;;5.32;1.52;;;8.50;99.90;;;;;;5023182;28;20108;-89
2023/05/18 02:39:32;;;;;;;5.80;1.42;;;8.50;99.90;;;;;;5019340;28;20186;-87
2023/05/18 02:42:01;;;;;;;6.35;1.85;;;8.60;99.90;;;;;;5017822;28;20045;-88
2023/05/18 02:44:27;;;;;;;7.28;1.70;;;8.50;99.90;;;;;;5018672;28;20061;-88
2023/05/18 02:46:55;;;;;;;5.50;2.00;;;8.50;99.90;;;;;;5020455;28;20044;-88
2023/05/18 02:49:24;;;;;;;7.25;1.60;;;8.50;99.90;;;;;;5031965;28;20129;-88
2023/05/18 02:51:50;;;;;;;4.53;1.40;;;8.50;99.90;;;;;;5045258;28;20119;-89
2023/05/18 02:54:28;;;;;;;3.57;1.60;;;8.50;99.90;;;;;;5029677;28;20608;-87
2023/05/18 02:57:07;;;;;;;4.22;1.50;;;8.60;99.90;;;;;;5044350;28;20098;-88
2023/05/18 02:59:32;;;;;;;3.08;1.85;;;8.60;99.90;;;;;;5047823;28;20041;-88
2023/05/18 03:01:58;;;;;;;4.10;1.40;;;8.50;99.90;;;;;;5022772;28;20047;-88
2023/05/18 03:04:24;;;;;;;5.47;2.53;;;8.60;99.90;;;;;;5035346;28;20047;-89
2023/05/18 03:06:56;;;;;;;8.05;2.13;;;8.60;99.90;;;;;;5027106;28;20102;-87
2023/05/18 03:09:21;;;;;;;3.63;1.48;;;8.50;99.90;;;;;;5032619;28;20043;-88
2023/05/18 03:11:50;;;;;;;4.05;1.63;;;8.60;99.90;;;;;;5035845;28;20068;-88
2023/05/18 03:14:22;;;;;;;5.72;2.10;;;8.60;99.90;;;;;;5024767;28;21320;-88
2023/05/18 03:16:52;;;;;;;4.60;2.38;;;8.60;99.90;;;;;;5049632;23;20033;-68
2023/05/18 03:19:18;;;;;;;4.25;1.58;;;8.50;99.90;;;;;;5033087;28;20042;-68
2023/05/18 03:21:43;;;;;;;6.93;1.88;;;8.50;99.90;;;;;;5037046;28;20056;-68
2023/05/18 03:24:13;;;;;;;8.67;1.73;;;8.60;99.90;;;;;;5023158;28;20553;-68
2023/05/18 03:26:43;;;;;;;4.22;1.95;;;8.60;99.90;;;;;;5018250;28;20089;-68
2023/05/18 03:29:09;;;;;;;6.00;1.30;;;8.60;99.90;;;;;;5024308;28;20127;-68
2023/05/18 03:31:35;;;;;;;4.00;1.60;;;8.60;99.90;;;;;;5014244;28;20071;-68
2023/05/18 03:34:00;;;;;;;5.88;2.47;;;8.60;99.90;;;;;;5019897;28;20045;-68
2023/05/18 03:36:27;;;;;;;5.70;1.43;;;8.60;99.90;;;;;;5006389;28;20052;-68
2023/05/18 03:38:53;;;;;;;7.30;1.85;;;8.60;99.90;;;;;;5007140;28;20228;-68
2023/05/18 03:41:18;;;;;;;4.22;1.50;;;8.60;99.90;;;;;;5023305;28;20501;-68
2023/05/18 03:43:44;;;;;;;4.13;1.40;;;8.60;99.90;;;;;;5015565;28;20116;-68
2023/05/18 03:46:10;;;;;;;6.78;1.17;;;8.70;99.90;;;;;;5022332;28;20065;-68
2023/05/18 03:48:36;;;;;;;5.53;1.50;;;8.60;99.90;;;;;;5024369;28;20308;-68
2023/05/18 03:51:01;;;;;;;4.73;1.43;;;8.70;99.90;;;;;;5026586;28;20557;-68
2023/05/18 03:53:28;;;;;;;5.90;1.20;;;8.70;99.90;;;;;;5019327;28;20046;-68
2023/05/18 03:55:54;;;;;;;6.95;1.38;;;8.70;99.90;;;;;;5016072;28;20037;-68
2023/05/18 03:58:19;;;;;;;5.87;1.77;;;8.70;99.90;;;;;;5021907;28;20483;-69
2023/05/18 04:00:46;;;;;;;4.77;1.40;;;8.70;99.90;;;;;;5020263;28;20030;-67
2023/05/18 04:03:13;;;;;;;;;;;8.70;99.90;;;;;;5026645;28;20083;-68
2023/05/18 04:05:42;;;;;;;2.95;1.48;;;8.70;99.90;;;;;;5022236;28;19917;-68
2023/05/18 04:08:08;;;;;;;7.93;1.98;;;8.70;99.90;;;;;;5027277;28;20436;-68
2023/05/18 04:10:33;;;;;;;4.18;1.52;;;8.70;99.90;;;;;;5014484;28;20085;-67
2023/05/18 04:12:59;;;;;;;1.97;1.00;;;8.70;99.90;;;;;;5023346;28;20594;-67
2023/05/18 04:15:25;;;;;;;6.97;1.70;;;8.70;99.90;;;;;;5029609;28;20375;-68
2023/05/18 04:17:52;;;;;;;10.37;1.93;;;8.70;99.90;;;;;;5029033;28;20038;-68
2023/05/18 04:20:18;;;;;;;5.13;1.55;;;8.80;99.90;;;;;;5029995;28;20048;-67
2023/05/18 04:22:47;;;;;;;2.80;1.27;;;8.70;99.90;;;;;;5027449;28;20037;-68
2023/05/18 04:25:14;;;;;;;5.95;1.15;;;8.80;99.90;;;;;;5011611;28;20150;-68
2023/05/18 04:27:41;;;;;;;6.63;1.75;;;8.80;99.90;;;;;;5020904;28;20049;-68
2023/05/18 04:30:09;;;;;;;4.07;1.70;;;8.80;99.90;;;;;;5021737;28;20048;-68
2023/05/18 04:32:35;;;;;;;2.72;1.08;;;8.70;99.90;;;;;;5020714;28;20391;-68
2023/05/18 04:35:06;;;;;;;3.60;1.55;;;8.80;99.90;;;;;;5018712;28;20029;-67
2023/05/18 04:37:34;;;;;;;5.40;1.35;;;8.80;99.90;;;;;;5020468;28;20069;-67
2023/05/18 04:40:05;;;;;;;3.25;1.15;;;8.80;99.90;;;;;;5023347;28;20116;-68
2023/05/18 04:42:30;;;;;;;9.63;1.50;;;8.80;99.90;;;;;;5022658;28;20054;-68
2023/05/18 04:44:56;;;;;;;5.27;1.97;;;8.80;99.90;;;;;;5017873;28;20053;-68
2023/05/18 04:47:24;;;;;;;5.00;1.65;;;8.90;99.90;;;;;;5023456;28;20112;-68
2023/05/18 04:49:53;;;;;;;6.43;1.27;;;8.90;99.90;;;;;;5028332;28;20184;-67
2023/05/18 04:52:19;;;;;;;5.57;2.00;;;8.90;99.90;;;;;;5024947;28;20041;-67
2023/05/18 04:54:45;;;;;;;6.32;1.50;;;8.90;99.90;;;;;;5032585;28;20033;-68
2023/05/18 04:57:11;;;;;;;3.83;1.38;;;8.90;99.90;;;;;;5023011;28;20554;-68
2023/05/18 04:59:37;;;;;;;5.22;1.38;;;8.90;99.90;;;;;;5020281;28;20069;-68
2023/05/18 05:02:04;;;;;;;3.90;1.55;;;8.90;99.90;;;;;;5018981;28;20146;-68
2023/05/18 05:04:29;;;;;;;5.50;1.70;;;8.90;99.90;;;;;;5028398;28;20045;-68
2023/05/18 05:06:55;;;;;;;4.00;1.60;;;9.00;99.90;;;;;;5032676;28;20079;-68
2023/05/18 05:09:20;;;;;;;7.00;1.80;;;9.00;99.90;;;;;;5022512;28;20059;-68
2023/05/18 05:11:52;;;;;;;2.27;1.03;;;9.00;99.90;;;;;;5021283;28;20041;-68
2023/05/18 05:14:17;;;;;;;4.20;1.73;;;9.00;99.90;;;;;;5012779;28;20431;-67
2023/05/18 05:16:43;;;;;;;7.97;2.13;;;9.10;99.90;;;;;;5023919;28;20043;-67
2023/05/18 05:19:08;;;;;;;4.00;1.30;;;9.10;99.90;;;;;;5022850;28;20088;-67
2023/05/18 05:21:35;;;;;;;4.40;1.23;;;9.10;99.90;;;;;;5030605;28;20041;-68
2023/05/18 05:24:03;;;;;;;4.50;1.70;;;9.10;99.90;;;;;;5025109;28;20072;-68
2023/05/18 05:26:31;;;;;;;2.65;1.17;;;9.20;99.90;;;;;;5016779;28;20446;-68
2023/05/18 05:28:57;;;;;;;5.38;2.08;;;9.20;99.90;;;;;;5025008;28;20057;-68
2023/05/18 05:31:22;;;;;;;2.80;1.30;;;9.30;99.90;;;;;;5019230;28;20441;-68
2023/05/18 05:33:51;;;;;;;3.50;1.40;;;9.30;99.90;;;;;;5026510;28;20034;-68
2023/05/18 05:36:16;;;;;;;4.43;1.38;;;9.30;99.90;;;;;;5022672;28;20077;-68
2023/05/18 05:38:42;;;;;;;10.53;1.50;;;9.40;99.90;;;;;;5028930;28;20099;-68
2023/05/18 05:41:08;;;;;;;4.00;1.60;;;9.40;99.90;;;;;;5025164;28;20099;-68
2023/05/18 05:43:33;;;;;;;6.20;1.90;;;9.50;99.90;;;;;;5032186;28;20590;-68
2023/05/18 05:45:59;;;;;;;5.90;1.37;;;9.50;99.90;;;;;;5016383;28;20041;-68
2023/05/18 05:48:27;;;;;;;4.03;1.27;;;9.60;99.90;;;;;;5019503;28;20158;-68
2023/05/18 05:50:55;;;;;;;10.35;1.58;;;9.60;99.90;;;;;;5027425;28;20054;-68
2023/05/18 05:53:22;;;;;;;5.72;1.45;;;9.60;99.90;;;;;;5031764;28;20087;-68
2023/05/18 05:55:50;;;;;;;6.55;1.92;;;9.70;99.90;;;;;;5018200;28;20041;-67
2023/05/18 05:58:16;;;;;;;8.10;1.43;;;9.80;99.90;;;;;;5024209;28;20506;-68
2023/05/18 06:00:42;;;;;;;6.10;1.80;;;9.80;99.90;;;;;;5030111;28;20045;-68
2023/05/18 06:03:08;;;;;;;5.82;1.05;;;9.80;99.90;;;;;;5023921;28;20049;-68
2023/05/18 06:05:35;;;;;;;3.23;1.30;;;9.90;99.90;;;;;;5020905;28;20069;-68
2023/05/18 06:08:01;;;;;;;7.50;1.58;;;9.90;99.90;;;;;;5019553;28;20049;-68
2023/05/18 06:10:27;;;;;;;5.93;1.10;;;10.00;99.90;;;;;;5023880;28;20442;-68
2023/05/18 06:12:52;;;;;;;2.80;0.80;;;10.00;99.90;;;;;;5033020;28;20073;-68
2023/05/18 06:15:18;;;;;;;2.83;1.15;;;10.10;99.90;;;;;;5023141;28;20117;-68
2023/05/18 06:17:44;;;;;;;3.20;0.90;;;10.10;99.90;;;;;;5007771;28;20045;-68
2023/05/18 06:20:11;;;;;;;6.47;1.60;;;10.10;99.90;;;;;;5008164;28;20052;-68
2023/05/18 06:22:36;;;;;;;3.53;1.38;;;10.20;99.90;;;;;;5026075;28;20053;-67
2023/05/18 06:25:02;;;;;;;5.23;1.07;;;10.20;99.90;;;;;;5023108;28;20049;-67
2023/05/18 06:27:28;;;;;;;4.53;1.52;;;10.20;99.90;;;;;;5025501;28;20052;-68
2023/05/18 06:29:53;;;;;;;4.93;1.30;;;10.30;99.90;;;;;;5025585;28;20045;-68
2023/05/18 06:32:19;;;;;;;2.93;0.80;;;10.30;99.90;;;;;;5021734;28;20041;-68
2023/05/18 06:34:49;;;;;;;5.47;1.10;;;10.30;99.90;;;;;;5030138;28;20095;-68
2023/05/18 06:37:16;;;;;;;5.50;1.42;;;10.40;99.90;;;;;;5022469;28;20053;-68
2023/05/18 06:39:41;;;;;;;6.93;1.55;;;10.50;99.90;;;;;;5042760;22;20036;-67
2023/05/18 06:42:08;;;;;;;7.97;1.40;;;10.60;99.90;;;;;;5030474;28;20085;-68
2023/05/18 06:44:36;;;;;;;8.90;1.30;;;10.60;99.90;;;;;;5017732;28;20146;-67
2023/05/18 06:47:02;;;;;;;5.03;1.30;;;10.70;99.90;;;;;;5020774;28;20068;-68
2023/05/18 06:49:31;;;;;;;5.97;1.10;;;10.70;99.90;;;;;;5027779;28;20128;-68
2023/05/18 06:51:57;;;;;;;5.72;1.40;;;10.80;99.90;;;;;;5016412;28;20046;-67
2023/05/18 06:54:22;;;;;;;3.43;1.07;;;10.80;99.90;;;;;;5022520;28;20033;-67
2023/05/18 06:56:48;;;;;;;5.33;1.30;;;10.90;99.90;;;;;;5023960;28;20566;-71
2023/05/18 06:59:13;;;;;;;5.83;1.37;;;10.90;99.90;;;;;;5005428;28;20452;-67
2023/05/18 07:01:40;;;;;;;4.67;1.10;;;11.00;99.90;;;;;;5026391;28;20108;-68
2023/05/18 07:04:05;;;;;;;4.47;1.60;;;10.90;99.90;;;;;;5022545;28;20113;-68
2023/05/18 07:06:31;;;;;;;10.60;2.00;;;11.10;99.90;;;;;;5015364;28;20041;-68
2023/05/18 07:08:57;;;;;;;11.50;1.50;;;11.20;99.90;;;;;;5018083;28;20116;-67
2023/05/18 07:11:22;;;;;;;3.53;1.30;;;11.20;99.90;;;;;;5021686;28;20099;-68
2023/05/18 07:13:48;;;;;;;5.50;1.13;;;11.20;99.90;;;;;;5023676;28;20057;-68
2023/05/18 07:16:14;;;;;;;3.50;1.07;;;11.30;99.90;;;;;;5019362;28;20053;-67
2023/05/18 07:18:41;;;;;;;3.22;1.25;;;11.30;99.90;;;;;;5023299;28;20037;-68
2023/05/18 07:21:06;;;;;;;7.00;1.52;;;11.40;99.90;;;;;;5024900;28;20084;-67
2023/05/18 07:23:32;;;;;;;2.77;1.17;;;11.50;99.90;;;;;;5006430;28;20068;-67
2023/05/18 07:25:57;;;;;;;7.20;1.60;;;11.60;99.90;;;;;;5025208;28;20147;-67
2023/05/18 07:28:23;;;;;;;6.00;1.63;;;11.70;99.90;;;;;;5023949;28;20065;-68
2023/05/18 07:30:49;;;;;;;8.20;1.33;;;11.70;99.90;;;;;;5022645;28;20136;-70
2023/05/18 07:33:15;;;;;;;3.97;1.40;;;11.80;99.90;;;;;;5019926;28;20124;-70
2023/05/18 07:35:40;;;;;;;3.53;1.33;;;11.80;99.90;;;;;;5019224;28;20460;-69
2023/05/18 07:38:06;;;;;;;4.83;1.37;;;11.70;99.90;;;;;;5016742;28;20124;-70
2023/05/18 07:40:32;;;;;;;5.03;1.20;;;11.70;99.90;;;;;;5020296;28;20479;-70
2023/05/18 07:42:57;;;;;;;4.53;1.30;;;11.70;99.90;;;;;;5024942;28;20176;-70
2023/05/18 07:45:23;;;;;;;6.20;1.53;;;11.80;99.90;;;;;;5019069;28;20584;-69
2023/05/18 07:47:49;;;;;;;7.97;1.52;;;11.80;99.90;;;;;;5019914;28;20091;-70
2023/05/18 07:50:16;;;;;;;6.05;2.10;;;11.90;99.90;;;;;;5020172;28;20053;-69
2023/05/18 07:52:41;;;;;;;6.07;1.30;;;11.90;99.90;;;;;;5017617;28;20041;-70
2023/05/18 07:55:07;;;;;;;3.53;1.10;;;11.90;99.90;;;;;;5014313;28;20053;-70
2023/05/18 07:57:34;;;;;;;3.88;1.23;;;11.90;99.90;;;;;;5015523;28;20053;-69
2023/05/18 07:59:59;;;;;;;2.10;1.20;;;12.00;99.90;;;;;;5012887;28;20034;-69
2023/05/18 08:02:25;;;;;;;5.30;1.63;;;12.10;99.90;;;;;;5017402;28;20044;-70
2023/05/18 08:04:52;;;;;;;9.43;2.33;;;12.20;99.90;;;;;;5016523;28;20381;-70
2023/05/18 08:07:17;;;;;;;7.05;1.33;;;12.40;99.90;;;;;;5023627;28;20211;-70
2023/05/18 08:09:43;;;;;;;7.40;1.30;;;12.40;99.90;;;;;;5023855;28;20129;-70
2023/05/18 08:12:09;;;;;;;6.97;1.30;;;12.50;99.90;;;;;;5025679;28;20088;-69
2023/05/18 08:14:35;;;;;;;1.97;1.00;;;12.50;99.90;;;;;;5024129;28;20114;-70
2023/05/18 08:17:02;;;;;;;9.93;2.15;;;12.50;99.90;;;;;;5012743;28;21312;-67
2023/05/18 08:19:28;;;;;;;5.88;1.40;;;12.60;99.90;;;;;;5019511;28;20487;-68
2023/05/18 08:21:54;;;;;;;6.23;0.93;;;12.70;99.90;;;;;;5004544;28;20045;-68
2023/05/18 08:24:20;;;;;;;6.17;1.10;;;12.80;99.90;;;;;;5025050;28;20183;-68
2023/05/18 08:26:45;;;;;;;5.93;1.00;;;13.00;99.90;;;;;;5013408;28;20046;-68
2023/05/18 08:29:11;;;;;;;3.23;1.13;;;13.00;99.90;;;;;;5024282;28;20070;-68
2023/05/18 08:31:37;;;;;;;4.20;1.27;;;13.00;99.90;;;;;;5025768;28;20048;-68
2023/05/18 08:34:04;;;;;;;2.88;0.90;;;13.00;99.90;;;;;;5024658;28;20123;-69
2023/05/18 08:36:32;;;;;;;3.78;0.93;;;13.00;99.90;;;;;;5021208;28;20045;-70
2023/05/18 08:38:58;;;;;;;4.57;1.40;;;13.00;99.90;;;;;;5026881;28;20048;-70
2023/05/18 08:41:52;;;;;;;6.45;1.40;;;13.10;99.90;;;;;;5019942;28;20108;-70
2023/05/18 08:44:21;;;;;;;3.45;1.13;;;13.10;99.90;;;;;;5013478;28;20077;-68
2023/05/18 08:46:49;;;;;;;5.90;1.38;;;13.20;99.90;;;;;;5033064;28;20088;-68
2023/05/18 08:49:20;;;;;;;3.75;1.00;;;13.30;99.90;;;;;;5036714;28;20042;-68
2023/05/18 08:51:53;;;;;;;3.95;1.08;;;13.30;99.90;;;;;;5033388;28;20064;-68
2023/05/18 08:54:22;;;;;;;8.63;1.40;;;13.30;99.90;;;;;;5020881;28;20047;-68
2023/05/18 08:56:48;;;;;;;6.03;1.48;;;13.30;99.90;;;;;;5024477;28;20255;-68
2023/05/18 08:59:25;;;;;;;;;;;13.30;99.90;;;;;;5020419;28;20045;-68
2023/05/18 09:01:53;;;;;;;3.05;1.35;;;13.40;99.90;;;;;;5045628;28;20440;-68
2023/05/18 09:04:20;;;;;;;2.85;1.10;;;13.50;99.90;;;;;;5024589;28;20513;-68
2023/05/18 09:06:48;;;;;;;4.00;1.02;;;13.50;99.90;;;;;;5030838;28;20042;-68
2023/05/18 09:09:15;;;;;;;8.45;1.63;;;13.50;99.90;;;;;;5024313;28;20569;-68
2023/05/18 09:11:41;;;;;;;5.07;1.20;;;13.50;99.90;;;;;;5021690;28;20049;-68
2023/05/18 09:14:07;;;;;;;4.97;1.35;;;13.50;99.90;;;;;;5022421;28;20218;-68
2023/05/18 09:16:32;;;;;;;4.95;1.27;;;13.60;99.90;;;;;;5026623;28;20045;-67
2023/05/18 09:18:58;;;;;;;4.40;1.67;;;13.80;99.90;;;;;;5022720;28;20082;-68
2023/05/18 09:21:25;;;;;;;5.03;1.00;;;13.80;99.60;;;;;;5015198;28;20360;-68
2023/05/18 09:23:50;;;;;;;4.90;1.90;;;13.90;99.70;;;;;;5021598;28;20116;-68
2023/05/18 09:26:17;;;;;;;6.45;1.52;;;14.00;99.60;;;;;;5025270;28;20136;-68
2023/05/18 09:28:44;;;;;;;4.53;1.50;;;14.10;99.40;;;;;;5023985;28;20085;-68
2023/05/18 09:31:15;;;;;;;;;;;14.20;99.40;;;;;;5006794;28;20033;-68
2023/05/18 09:33:42;;;;;;;5.82;1.73;;;14.30;97.90;;;;;;5023722;28;20581;-68
2023/05/18 09:36:10;;;;;;;3.67;1.02;;;14.30;99.00;;;;;;5023121;28;20128;-68
2023/05/18 09:38:44;;;;;;;5.32;1.02;;;14.30;99.30;;;;;;5025119;28;20365;-68
2023/05/18 09:41:15;;;;;;;4.68;1.13;;;14.40;99.00;;;;;;5025793;28;20039;-68
2023/05/18 09:43:46;;;;;;;2.88;1.58;;;14.50;98.40;;;;;;5030152;28;20040;-68
2023/05/18 09:46:12;;;;;;;4.28;1.70;;;14.50;98.30;;;;;;5026005;28;20045;-68
2023/05/18 09:48:42;;;;;;;9.13;1.52;;;14.40;97.70;;;;;;5024806;28;20715;-68
2023/05/18 09:51:12;;;;;;;5.18;1.25;;;14.50;97.70;;;;;;5024157;28;20049;-68
2023/05/18 09:53:39;;;;;;;3.25;1.40;;;14.50;97.30;;;;;;5024136;28;20132;-68
2023/05/18 09:56:10;;;;;;;6.57;1.83;;;14.50;97.30;;;;;;5018871;28;20507;-67
2023/05/18 09:58:37;;;;;;;4.53;1.33;;;14.50;97.30;;;;;;5025669;28;20042;-68
2023/05/18 10:01:03;;;;;;;5.28;1.08;;;14.50;97.20;;;;;;5032937;28;20068;-68
2023/05/18 10:03:37;;;;;;;3.70;1.23;;;14.40;97.10;;;;;;5020727;28;20260;-68
2023/05/18 10:06:12;;;;;;;5.53;1.17;;;14.50;97.30;;;;;;5022255;28;20095;-68
2023/05/18 10:08:38;;;;;;;2.70;1.13;;;14.50;96.50;;;;;;5026557;28;20468;-68
2023/05/18 10:11:04;;;;;;;7.88;2.45;;;14.50;96.40;;;;;;5019435;28;20377;-67
2023/05/18 10:13:31;;;;;;;3.97;1.38;;;14.60;96.50;;;;;;5026375;28;20080;-68
2023/05/18 10:16:00;;;;;;;7.68;1.20;;;14.60;96.30;;;;;;5028911;28;20352;-68
2023/05/18 10:18:29;;;;;;;5.22;1.15;;;14.70;96.00;;;;;;5029976;28;20099;-68
2023/05/18 10:20:58;;;;;;;5.05;1.48;;;14.70;96.00;;;;;;5022126;28;20041;-68
2023/05/18 10:23:25;;;;;;;3.58;1.38;;;14.70;95.90;;;;;;5022127;28;20037;-68
2023/05/18 10:25:52;;;;;;;4.32;1.52;;;14.70;95.80;;;;;;5026059;28;20478;-68
2023/05/18 10:28:26;;;;;;;3.88;1.50;;;14.80;96.00;;;;;;5030641;28;20087;-68
2023/05/18 10:30:54;;;;;;;4.25;1.55;;;14.80;95.80;;;;;;5025186;28;20120;-68
2023/05/18 10:33:22;;;;;;;4.82;1.30;;;14.80;95.50;;;;;;5025395;28;20049;-68
2023/05/18 10:35:49;;;;;;;3.17;0.95;;;14.90;96.00;;;;;;5025578;28;20087;-68
2023/05/18 10:38:19;;;;;;;5.13;1.13;;;15.00;95.90;;;;;;5025281;28;20049;-68
2023/05/18 10:40:50;;;;;;;6.50;1.40;;;15.10;95.80;;;;;;5021451;28;20514;-69
2023/05/18 10:43:19;;;;;;;3.50;1.30;;;15.20;95.30;;;;;;5018692;28;20386;-69
2023/05/18 10:46:01;;;;;;;5.80;1.48;;;15.10;94.70;;;;;;5026357;28;20072;-69
2023/05/18 10:48:28;;;;;;;5.50;1.35;;;15.10;94.50;;;;;;5020977;28;20056;-69
2023/05/18 10:50:55;;;;;;;3.60;1.48;;;15.20;94.60;;;;;;5020949;28;20048;-69
2023/05/18 10:53:30;;;;;;;2.92;1.30;;;15.30;94.40;;;;;;5020434;28;20056;-69
2023/05/18 10:55:55;;;;;;;6.25;1.50;;;15.40;94.40;;;;;;5006225;28;20073;-68
2023/05/18 10:58:25;;;;;;;5.82;1.20;;;15.50;94.50;;;;;;5022596;28;20077;-69
2023/05/18 11:00:58;;;;;;;8.60;2.08;;;15.50;94.30;;;;;;5019829;28;20045;-69
2023/05/18 11:03:25;;;;;;;7.90;1.75;;;15.60;94.20;;;;;;5032423;28;20049;-69
2023/05/18 11:06:05;;;;;;;4.03;1.27;;;15.70;93.70;;;;;;5034210;28;20509;-69
2023/05/18 11:08:31;;;;;;;8.07;1.65;;;15.70;93.50;;;;;;5021188;28;20164;-69
2023/05/18 11:11:06;;;;;;;4.03;1.52;;;15.60;93.50;;;;;;5026540;28;20132;-69
2023/05/18 11:13:33;;;;;;;5.97;1.20;;;15.70;93.30;;;;;;5017717;28;20450;-69
2023/05/18 11:15:58;;;;;;;3.70;1.45;;;15.80;93.60;;;;;;5002725;28;20152;-69
2023/05/18 11:18:37;;;;;;;7.17;1.57;;;15.80;93.30;;;;;;5015579;28;20200;-69
2023/05/18 11:21:03;;;;;;;3.33;1.23;;;15.90;92.60;;;;;;5017019;28;20349;-69
2023/05/18 11:23:32;;;;;;;5.03;1.98;;;15.90;92.30;;;;;;5024214;28;20105;-69
2023/05/18 11:26:03;;;;;;;9.32;2.03;;;15.90;92.10;;;;;;5022054;28;20144;-68
2023/05/18 11:28:30;;;;;;;6.18;2.10;;;15.90;92.10;;;;;;5019357;28;20272;-69
2023/05/18 11:30:56;;;;;;;3.92;1.42;;;15.90;92.60;;;;;;5017349;28;20464;-69
2023/05/18 11:33:29;;;;;;;4.10;1.33;;;16.00;92.20;;;;;;5022412;28;20069;-69
2023/05/18 11:36:05;;;;;;;4.85;1.27;;;16.00;91.40;;;;;;5015511;28;20037;-69
2023/05/18 11:38:52;;;;;;;4.60;1.63;;;16.10;91.40;;;;;;5019532;28;20044;-68
2023/05/18 11:41:43;;;;;;;5.30;1.27;;;16.20;91.20;;;;;;4999077;28;20073;-70
2023/05/18 11:44:14;;;;;;;5.78;1.42;;;16.30;91.30;;;;;;5016842;28;20119;-69
2023/05/18 11:47:03;;;;;;;5.13;1.45;;;16.40;91.70;;;;;;5017228;28;20057;-69
2023/05/18 11:49:43;;;;;;;8.35;1.77;;;16.50;91.40;;;;;;5037383;28;20040;-69
2023/05/18 11:52:20;;;;;;;6.90;1.35;;;16.50;90.60;;;;;;5013747;28;20432;-69
2023/05/18 11:55:07;;;;;;;8.25;1.55;;;16.50;90.90;;;;;;5031107;28;20037;-69
2023/05/18 11:57:32;;;;;;;;;;;16.60;91.10;;;;;;5018055;28;20049;-69
2023/05/18 12:00:00;;;;;;;3.97;1.58;;;16.60;90.10;;;;;;5014759;28;19952;-68
2023/05/18 12:02:33;;;;;;;5.38;1.67;;;16.50;90.60;;;;;;5019561;28;20042;-69
2023/05/18 12:05:01;;;;;;;4.47;1.50;;;16.40;90.40;;;;;;5022687;28;20115;-68
2023/05/18 12:07:28;;;;;;;8.55;1.90;;;16.40;90.60;;;;;;5024095;28;20468;-68
2023/05/18 12:10:06;;;;;;;4.18;1.65;;;16.30;90.60;;;;;;5023882;28;20049;-68
2023/05/18 12:12:32;;;;;;;5.95;1.60;;;16.20;90.40;;;;;;5009433;28;20052;-69
2023/05/18 12:15:00;;;;;;;6.13;1.42;;;16.10;91.00;;;;;;5026268;28;20067;-68
2023/05/18 12:17:47;;;;;;;11.05;2.30;;;16.00;91.30;;;;;;5019260;28;20045;-69
2023/05/18 12:20:19;;;;;;;4.43;1.77;;;16.00;91.60;;;;;;5024716;28;20037;-68
2023/05/18 12:22:51;;;;;;;4.93;1.55;;;15.90;91.70;;;;;;5017260;28;20124;-68
2023/05/18 12:25:18;;;;;;;5.97;1.52;;;16.00;91.80;;;;;;5024491;28;20549;-71
2023/05/18 12:27:46;;;;;;;3.53;1.38;;;16.00;92.00;;;;;;4999858;28;20055;-68
2023/05/18 12:30:16;;;;;;;4.93;1.77;;;16.00;92.10;;;;;;5015854;28;20712;-68
2023/05/18 12:32:51;;;;;;;2.35;1.10;;;16.00;91.70;;;;;;5011486;28;20265;-69
2023/05/18 12:35:24;;;;;;;7.03;1.90;;;16.00;91.60;;;;;;5017345;28;20128;-68
2023/05/18 12:37:50;;;;;;;3.33;1.65;;;16.10;91.30;;;;;;5019309;28;20198;-69
2023/05/18 12:40:18;;;;;;;22.13;7.75;;;16.10;91.40;;;;;;5028070;22;20054;-69
2023/05/18 12:43:11;;;;;;;6.97;1.52;;;16.20;91.80;;;;;;5014567;28;20498;-69
2023/05/18 12:45:37;;;;;;;4.18;1.90;;;16.20;92.20;;;;;;4988907;28;20053;-68
2023/05/18 12:48:03;;;;;;;4.85;1.92;;;16.20;91.90;;;;;;4997649;28;20431;-69
2023/05/18 12:50:29;;;;;;;4.07;1.70;;;16.10;92.00;;;;;;5001352;28;20360;-69
2023/05/18 12:52:55;;;;;;;5.25;1.95;;;16.10;92.10;;;;;;5013989;28;20121;-68
2023/05/18 12:55:21;;;;;;;4.15;2.15;;;16.10;92.30;;;;;;4999881;28;20049;-69
2023/05/18 12:57:58;;;;;;;;;;;16.10;92.30;;;;;;4989849;28;20059;-68
2023/05/18 13:00:23;;;;;;;4.20;1.55;;;16.20;92.10;;;;;;5003451;28;20400;-68
2023/05/18 13:02:49;;;;;;;6.55;1.38;;;16.20;92.40;;;;;;4998283;28;20259;-68